Time;durP1;ratioP1;P1;durP2;ratioP2;P2;SDS_P1;SDS_P2;PMS_P1;PMS_P2;Temp;Humidity;BMP_temperature;BMP_pressure;BME280_temperature;BME280_humidity;BME280_pressure;Samples;Min_cycle;Max_cycle;Signal;HPM_P1;HPM_P2
2021/12/30 00:01:56;;;;;;;;;;;12.10;99.90;;;;;;5071868;28;19928;-66
2021/12/30 00:04:24;;;;;;;;;;;;;;;;;;5071897;28;19913;-66
2021/12/30 00:06:49;;;;;;;;;;;;;;;;;;5071724;28;20307;-66
2021/12/30 00:09:15;;;;;;;;;;;;;;;;;;5071219;28;19908;-66
2021/12/30 00:11:41;;;;;;;;;;;12.60;99.90;;;;;;5071369;28;19949;-66
2021/12/30 00:14:08;;;;;;;;;;;12.60;99.90;;;;;;5071683;28;19915;-66
2021/12/30 00:16:33;;;;;;;;;;;13.20;99.90;;;;;;5071738;28;19905;-66
2021/12/30 00:18:59;;;;;;;;;;;12.50;99.90;;;;;;5071700;28;19915;-66
2021/12/30 00:21:25;;;;;;;;;;;11.80;99.90;;;;;;5071358;28;20346;-66
2021/12/30 00:23:51;;;;;;;;;;;12.50;99.90;;;;;;5075088;28;19946;-66
2021/12/30 00:26:17;;;;;;;;;;;12.70;99.90;;;;;;5075505;28;19908;-66
2021/12/30 00:28:43;;;;;;;;;;;12.70;99.90;;;;;;5075412;28;19911;-66
2021/12/30 00:31:08;;;;;;;;;;;11.90;99.90;;;;;;5074835;28;19905;-66
2021/12/30 00:33:34;;;;;;;;;;;;;;;;;;5075710;28;19912;-67
2021/12/30 00:36:02;;;;;;;;;;;;;;;;;;5075470;28;19916;-66
2021/12/30 00:38:27;;;;;;;;;;;13.60;99.90;;;;;;5057696;28;20008;-66
2021/12/30 00:40:53;;;;;;;;;;;13.70;99.90;;;;;;5074647;28;20015;-66
2021/12/30 00:43:19;;;;;;;;;;;12.20;99.90;;;;;;5074948;28;19904;-67
2021/12/30 00:45:45;;;;;;;;;;;;;;;;;;5075327;28;19909;-67
2021/12/30 00:48:10;;;;;;;;;;;13.70;99.90;;;;;;5073738;28;19946;-67
2021/12/30 00:50:38;;;;;;;;;;;12.80;99.90;;;;;;5074196;28;19920;-67
2021/12/30 00:53:04;;;;;;;;;;;13.60;99.90;;;;;;5075026;28;19970;-66
2021/12/30 00:55:30;;;;;;;;;;;13.40;99.90;;;;;;5075137;28;19954;-66
2021/12/30 00:57:55;;;;;;;;;;;13.60;99.90;;;;;;5074919;28;19912;-67
2021/12/30 01:00:22;;;;;;;;;;;12.80;99.90;;;;;;5074440;28;19916;-67
2021/12/30 01:02:47;;;;;;;;;;;13.00;99.90;;;;;;5075189;28;19904;-66
2021/12/30 01:05:13;;;;;;;;;;;11.90;99.90;;;;;;5074597;28;20412;-66
2021/12/30 01:07:39;;;;;;;;;;;12.70;99.90;;;;;;5074879;28;19908;-66
2021/12/30 01:10:04;;;;;;;;;;;;;;;;;;5074382;28;20430;-66
2021/12/30 01:12:30;;;;;;;;;;;11.00;99.90;;;;;;5074726;28;19912;-65
2021/12/30 01:14:56;;;;;;;;;;;12.30;99.90;;;;;;5074553;28;20362;-66
2021/12/30 01:17:28;;;;;;;;;;;12.30;99.90;;;;;;5074624;28;19908;-65
2021/12/30 01:19:54;;;;;;;;;;;12.80;99.90;;;;;;5073917;28;19999;-66
2021/12/30 01:22:20;;;;;;;;;;;13.00;99.90;;;;;;5074836;28;19948;-65
2021/12/30 01:24:46;;;;;;;;;;;12.80;99.90;;;;;;5074851;28;20339;-66
2021/12/30 01:27:12;;;;;;;;;;;11.90;99.90;;;;;;5078867;28;19908;-66
2021/12/30 01:29:38;;;;;;;;;;;11.40;99.90;;;;;;5074919;28;19912;-66
2021/12/30 01:32:03;;;;;;;;;;;12.40;99.90;;;;;;5074539;28;19905;-65
2021/12/30 01:34:29;;;;;;;;;;;11.70;99.90;;;;;;5073052;28;19908;-65
2021/12/30 01:36:55;;;;;;;;;;;11.70;99.90;;;;;;5074665;28;19973;-64
2021/12/30 01:39:22;;;;;;;;;;;12.20;99.90;;;;;;5073716;28;20658;-66
2021/12/30 01:41:48;;;;;;;;;;;12.10;99.90;;;;;;5074362;28;19909;-65
2021/12/30 01:44:14;;;;;;;;;;;12.70;99.90;;;;;;5074113;28;19962;-66
2021/12/30 01:46:41;;;;;;;;;;;11.50;99.90;;;;;;5074300;28;19908;-66
2021/12/30 01:49:06;;;;;;;;;;;;;;;;;;5073419;28;19904;-66
2021/12/30 01:51:32;;;;;;;;;;;11.70;99.90;;;;;;5074081;28;19909;-66
2021/12/30 01:53:58;;;;;;;;;;;12.60;99.90;;;;;;5074488;28;20556;-66
2021/12/30 01:56:23;;;;;;;;;;;10.40;99.90;;;;;;5087544;28;19908;-65
2021/12/30 01:58:49;;;;;;;;;;;;;;;;;;5078340;28;20400;-67
2021/12/30 02:01:15;;;;;;;;;;;10.70;99.90;;;;;;5073288;28;19920;-66
2021/12/30 02:03:42;;;;;;;;;;;11.10;99.90;;;;;;5073979;28;19916;-66
2021/12/30 02:06:08;;;;;;;;;;;12.40;99.90;;;;;;5073970;28;20003;-66
2021/12/30 02:08:33;;;;;;;;;;;13.50;99.90;;;;;;5073914;28;20007;-66
2021/12/30 02:10:59;;;;;;;;;;;11.40;99.90;;;;;;5073342;28;19908;-66
2021/12/30 02:13:25;;;;;;;;;;;11.80;99.90;;;;;;5073406;28;19916;-66
2021/12/30 02:15:50;;;;;;;;;;;12.50;99.90;;;;;;5073875;28;19995;-66
2021/12/30 02:18:16;;;;;;;;;;;11.10;99.90;;;;;;5073406;28;20317;-65
2021/12/30 02:20:45;;;;;;;;;;;11.30;99.90;;;;;;5073090;28;19951;-65
2021/12/30 02:23:15;;;;;;;;;;;11.50;99.90;;;;;;5073553;28;19904;-65
2021/12/30 02:25:40;;;;;;;;;;;12.00;99.90;;;;;;5073244;28;20325;-66
2021/12/30 02:28:07;;;;;;;;;;;11.00;99.90;;;;;;5073278;28;19904;-66
2021/12/30 02:30:33;;;;;;;;;;;;;;;;;;5072587;28;19908;-66
2021/12/30 02:32:59;;;;;;;;;;;11.30;99.90;;;;;;5062362;28;19987;-66
2021/12/30 02:35:24;;;;;;;;;;;12.50;99.90;;;;;;5076747;28;19915;-66
2021/12/30 02:37:50;;;;;;;;;;;;;;;;;;5073168;28;19904;-65
2021/12/30 02:40:16;;;;;;;;;;;;;;;;;;5072552;28;20050;-66
2021/12/30 02:42:42;;;;;;;;;;;12.10;99.90;;;;;;5073057;28;19911;-65
2021/12/30 02:45:07;;;;;;;;;;;11.80;99.90;;;;;;5072519;28;20007;-64
2021/12/30 02:47:33;;;;;;;;;;;11.70;99.90;;;;;;5072824;28;19912;-65
2021/12/30 02:49:59;;;;;;;;;;;11.30;99.90;;;;;;5072273;28;20443;-66
2021/12/30 02:52:25;;;;;;;;;;;;;;;;;;5073021;28;19963;-66
2021/12/30 02:54:50;;;;;;;;;;;11.30;99.90;;;;;;5072876;28;19908;-66
2021/12/30 02:57:16;;;;;;;;;;;12.00;99.90;;;;;;5072833;28;19904;-65
2021/12/30 02:59:41;;;;;;;;;;;11.90;99.90;;;;;;5071878;28;19912;-65
2021/12/30 03:02:07;;;;;;;;;;;12.90;99.90;;;;;;5072675;28;19958;-65
2021/12/30 03:04:32;;;;;;;;;;;;;;;;;;5073047;28;20378;-66
2021/12/30 03:06:59;;;;;;;;;;;11.90;99.90;;;;;;5072618;28;19943;-66
2021/12/30 03:09:24;;;;;;;;;;;12.20;99.90;;;;;;5071980;28;19904;-66
2021/12/30 03:11:50;;;;;;;;;;;11.60;99.90;;;;;;5072436;28;19958;-66
2021/12/30 03:14:15;;;;;;;;;;;11.70;99.90;;;;;;5072123;28;19923;-66
2021/12/30 03:16:42;;;;;;;;;;;10.70;99.90;;;;;;5072355;28;19912;-66
2021/12/30 03:19:08;;;;;;;;;;;10.10;99.90;;;;;;5071893;28;19908;-66
2021/12/30 03:21:34;;;;;;;;;;;11.10;99.90;;;;;;5072234;28;19908;-66
2021/12/30 03:24:01;;;;;;;;;;;11.00;99.90;;;;;;5072381;28;19904;-65
2021/12/30 03:26:27;;;;;;;;;;;11.80;99.90;;;;;;5072220;28;19911;-65
2021/12/30 03:28:52;;;;;;;;;;;11.40;99.90;;;;;;5072296;28;19912;-64
2021/12/30 03:31:18;;;;;;;;;;;11.40;99.90;;;;;;5071430;28;19997;-66
2021/12/30 03:33:44;;;;;;;;;;;11.40;99.90;;;;;;5072262;28;19936;-63
2021/12/30 03:36:10;;;;;;;;;;;;;;;;;;5072076;28;20359;-66
2021/12/30 03:38:36;;;;;;;;;;;;;;;;;;5072257;28;19935;-65
2021/12/30 03:41:01;;;;;;;;;;;11.10;99.90;;;;;;5071475;28;20418;-66
2021/12/30 03:43:28;;;;;;;;;;;12.40;99.90;;;;;;5071834;28;19911;-66
2021/12/30 03:45:53;;;;;;;;;;;10.80;99.90;;;;;;5072052;28;19934;-68
2021/12/30 03:48:19;;;;;;;;;;;11.40;99.90;;;;;;5072140;28;20425;-66
2021/12/30 03:50:47;;;;;;;;;;;11.20;99.90;;;;;;5071331;28;19904;-65
2021/12/30 03:53:13;;;;;;;;;;;12.80;99.90;;;;;;5072105;28;19913;-66
2021/12/30 03:55:39;;;;;;;;;;;10.80;99.90;;;;;;5071868;28;19915;-66
2021/12/30 03:58:05;;;;;;;;;;;11.80;99.90;;;;;;5071237;28;19909;-66
2021/12/30 04:00:30;;;;;;;;;;;;;;;;;;5071348;28;19915;-65
2021/12/30 04:02:56;;;;;;;;;;;11.80;99.90;;;;;;5071900;28;19905;-66
2021/12/30 04:05:22;;;;;;;;;;;11.50;99.90;;;;;;5071947;28;20006;-66
2021/12/30 04:07:47;;;;;;;;;;;11.90;99.90;;;;;;5072038;28;20003;-67
2021/12/30 04:10:13;;;;;;;;;;;10.20;99.90;;;;;;5070724;28;19904;-66
2021/12/30 04:12:39;;;;;;;;;;;10.60;99.90;;;;;;5071504;28;19923;-65
2021/12/30 04:15:07;;;;;;;;;;;12.30;99.90;;;;;;5071368;28;19912;-65
2021/12/30 04:17:32;;;;;;;;;;;11.10;99.90;;;;;;5071804;28;19912;-66
2021/12/30 04:19:58;;;;;;;;;;;10.30;99.90;;;;;;5071169;28;19915;-65
2021/12/30 04:22:23;;;;;;;;;;;10.80;99.90;;;;;;5071686;28;19904;-65
2021/12/30 04:24:49;;;;;;;;;;;11.50;99.90;;;;;;5071838;28;20397;-65
2021/12/30 04:27:15;;;;;;;;;;;11.10;99.90;;;;;;5071739;28;19958;-66
2021/12/30 04:29:41;;;;;;;;;;;10.40;99.90;;;;;;5070809;28;19944;-65
2021/12/30 04:32:06;;;;;;;;;;;11.60;99.90;;;;;;5071707;28;19957;-65
2021/12/30 04:34:32;;;;;;;;;;;10.70;99.90;;;;;;5071591;28;19920;-65
2021/12/30 04:37:00;;;;;;;;;;;12.50;99.90;;;;;;5071619;28;19999;-64
2021/12/30 04:39:27;;;;;;;;;;;10.60;99.90;;;;;;5069581;28;20075;-65
2021/12/30 04:41:53;;;;;;;;;;;11.40;99.90;;;;;;5071472;28;19913;-65
2021/12/30 04:44:18;;;;;;;;;;;11.20;99.90;;;;;;5071597;28;20003;-65
2021/12/30 04:46:44;;;;;;;;;;;;;;;;;;5050623;28;19909;-73
2021/12/30 04:49:10;;;;;;;;;;;11.40;99.90;;;;;;5039913;28;20439;-72
2021/12/30 04:51:36;;;;;;;;;;;;;;;;;;5050985;28;19995;-73
2021/12/30 04:54:02;;;;;;;;;;;11.40;99.90;;;;;;5051761;28;19916;-75
2021/12/30 04:56:27;;;;;;;;;;;10.60;99.90;;;;;;5059457;28;19909;-72
2021/12/30 04:58:53;;;;;;;;;;;11.40;99.90;;;;;;5051351;28;19959;-73
2021/12/30 05:01:19;;;;;;;;;;;10.70;99.90;;;;;;5050447;28;19909;-73
2021/12/30 05:03:44;;;;;;;;;;;12.30;99.90;;;;;;5051909;28;19940;-72
2021/12/30 05:06:10;;;;;;;;;;;11.40;99.90;;;;;;5051482;28;19912;-71
2021/12/30 05:08:35;;;;;;;;;;;11.90;99.90;;;;;;5052543;28;19908;-72
2021/12/30 05:11:01;;;;;;;;;;;11.90;99.90;;;;;;5054016;28;19908;-72
2021/12/30 05:13:26;;;;;;;;;;;;;;;;;;5055261;28;19954;-73
2021/12/30 05:15:52;;;;;;;;;;;11.50;99.90;;;;;;5054867;28;19991;-74
2021/12/30 05:18:19;;;;;;;;;;;10.60;99.90;;;;;;5054682;28;19909;-71
2021/12/30 05:20:45;;;;;;;;;;;;;;;;;;5054290;28;20279;-72
2021/12/30 05:23:11;;;;;;;;;;;12.70;99.90;;;;;;5037003;28;19916;-73
2021/12/30 05:25:36;;;;;;;;;;;12.30;99.90;;;;;;5036524;28;19905;-73
2021/12/30 05:28:02;;;;;;;;;;;12.50;99.90;;;;;;5054530;28;19915;-72
2021/12/30 05:30:28;;;;;;;;;;;12.10;99.90;;;;;;5054234;28;19905;-72
2021/12/30 05:32:55;;;;;;;;;;;12.00;99.90;;;;;;5054512;28;19905;-73
2021/12/30 05:35:20;;;;;;;;;;;12.60;99.90;;;;;;5054672;28;20268;-72
2021/12/30 05:37:46;;;;;;;;;;;11.60;99.90;;;;;;5054178;28;19911;-72
2021/12/30 05:40:13;;;;;;;;;;;12.40;99.90;;;;;;5061205;28;20366;-71
2021/12/30 05:42:39;;;;;;;;;;;12.90;99.90;;;;;;5055872;28;19999;-74
2021/12/30 05:45:05;;;;;;;;;;;12.50;99.90;;;;;;5054452;28;20382;-73
2021/12/30 05:47:31;;;;;;;;;;;11.30;99.90;;;;;;5054476;28;19909;-72
2021/12/30 05:49:56;;;;;;;;;;;12.30;99.90;;;;;;5053443;28;19932;-72
2021/12/30 05:52:22;;;;;;;;;;;12.50;99.90;;;;;;5054394;28;19931;-72
2021/12/30 05:54:47;;;;;;;;;;;12.40;99.90;;;;;;5053747;28;20345;-73
2021/12/30 05:57:13;;;;;;;;;;;10.80;99.90;;;;;;5053889;28;20742;-72
2021/12/30 05:59:39;;;;;;;;;;;12.90;99.90;;;;;;5053852;28;19959;-73
2021/12/30 06:02:04;;;;;;;;;;;11.80;99.90;;;;;;5054014;28;19908;-74
2021/12/30 06:04:30;;;;;;;;;;;12.40;99.90;;;;;;5054134;28;19908;-74
2021/12/30 06:06:55;;;;;;;;;;;11.40;99.90;;;;;;5053719;28;20355;-74
2021/12/30 06:09:23;;;;;;;;;;;12.40;99.90;;;;;;5051697;28;19909;-73
2021/12/30 06:11:49;;;;;;;;;;;13.30;99.90;;;;;;5073416;28;20059;-73
2021/12/30 06:14:14;;;;;;;;;;;11.90;99.90;;;;;;5064856;28;19912;-73
2021/12/30 06:16:40;;;;;;;;;;;;;;;;;;5053897;28;19909;-74
2021/12/30 06:19:06;;;;;;;;;;;12.30;99.90;;;;;;5052928;28;19905;-75
2021/12/30 06:21:31;;;;;;;;;;;12.10;99.90;;;;;;5052661;28;19935;-73
2021/12/30 06:23:57;;;;;;;;;;;11.80;99.90;;;;;;5053554;28;20119;-71
2021/12/30 06:26:22;;;;;;;;;;;11.90;99.90;;;;;;5053077;28;20337;-77
2021/12/30 06:28:48;;;;;;;;;;;13.10;99.90;;;;;;5053257;28;19913;-77
2021/12/30 06:31:14;;;;;;;;;;;11.80;99.90;;;;;;5052873;28;19905;-76
2021/12/30 06:33:39;;;;;;;;;;;12.10;99.90;;;;;;5053321;28;19912;-76
2021/12/30 06:36:05;;;;;;;;;;;11.90;99.90;;;;;;5052735;28;19963;-76
2021/12/30 06:38:32;;;;;;;;;;;12.60;99.90;;;;;;5052115;28;19905;-76
2021/12/30 06:40:57;;;;;;;;;;;12.30;99.90;;;;;;5050738;28;20043;-76
2021/12/30 06:43:23;;;;;;;;;;;12.50;99.90;;;;;;5052234;28;20398;-76
2021/12/30 06:45:48;;;;;;;;;;;12.90;99.90;;;;;;5051851;28;19909;-76
2021/12/30 06:48:15;;;;;;;;;;;11.80;99.90;;;;;;5051973;28;19909;-76
2021/12/30 06:50:51;;;;;;;;;;;12.40;99.90;;;;;;5050793;28;19908;-76
2021/12/30 06:53:24;;;;;;;;;;;12.80;99.90;;;;;;5051957;28;19942;-76
2021/12/30 06:55:50;;;;;;;;;;;12.10;99.90;;;;;;5049513;28;19912;-75
2021/12/30 06:58:16;;;;;;;;;;;12.40;99.90;;;;;;5051941;28;19909;-76
2021/12/30 07:00:42;;;;;;;;;;;13.50;99.90;;;;;;5050967;28;20370;-76
2021/12/30 07:03:07;;;;;;;;;;;11.80;99.90;;;;;;5051664;28;20282;-75
2021/12/30 07:05:33;;;;;;;;;;;12.40;99.90;;;;;;5051519;28;20396;-79
2021/12/30 07:07:59;;;;;;;;;;;12.10;99.90;;;;;;5051334;28;20514;-78
2021/12/30 07:10:25;;;;;;;;;;;12.20;99.90;;;;;;5033750;28;20317;-80
2021/12/30 07:12:50;;;;;;;;;;;11.40;99.90;;;;;;5066855;22;19967;-76
2021/12/30 07:15:16;;;;;;;;;;;12.70;99.90;;;;;;5021193;28;19925;-76
2021/12/30 07:17:41;;;;;;;;;;;12.30;99.90;;;;;;5019764;28;19909;-76
2021/12/30 07:20:08;;;;;;;;;;;12.40;99.90;;;;;;4995511;28;20555;-77
2021/12/30 07:22:34;;;;;;;;;;;13.10;99.90;;;;;;5023803;28;19909;-77
2021/12/30 07:24:59;;;;;;;;;;;13.60;99.90;;;;;;4997293;28;19973;-77
2021/12/30 07:27:25;;;;;;;;;;;13.40;99.90;;;;;;5017208;28;19913;-78
2021/12/30 07:29:50;;;;;;;;;;;12.30;99.90;;;;;;5018017;28;20379;-79
2021/12/30 07:32:16;;;;;;;;;;;;;;;;;;4999865;28;19952;-79
2021/12/30 07:34:42;;;;;;;;;;;12.10;99.90;;;;;;5013088;28;19913;-79
2021/12/30 07:37:07;;;;;;;;;;;13.00;99.90;;;;;;5015823;28;19908;-78
2021/12/30 07:39:33;;;;;;;;;;;13.00;99.90;;;;;;5006051;28;19906;-79
2021/12/30 07:41:58;;;;;;;;;;;12.90;99.90;;;;;;5029483;28;19940;-79
2021/12/30 07:44:24;;;;;;;;;;;12.70;99.90;;;;;;5027618;28;19906;-68
2021/12/30 07:46:49;;;;;;;;;;;13.50;99.90;;;;;;5024083;28;19936;-69
2021/12/30 07:49:15;;;;;;;;;;;12.80;99.90;;;;;;5023974;28;19910;-69
2021/12/30 07:51:40;;;;;;;;;;;13.60;99.90;;;;;;5005924;28;19914;-68
2021/12/30 07:54:06;;;;;;;;;;;13.70;99.90;;;;;;5002913;28;19918;-67
2021/12/30 07:56:31;;;;;;;;;;;13.40;99.90;;;;;;4995027;28;19916;-68
2021/12/30 07:58:58;;;;;;;;;;;13.00;99.90;;;;;;4992377;28;19992;-69
2021/12/30 08:01:23;;;;;;;;;;;12.60;99.90;;;;;;4992282;28;20317;-70
2021/12/30 08:03:49;;;;;;;;;;;13.00;99.90;;;;;;4992756;28;19977;-70
2021/12/30 08:06:16;;;;;;;;;;;12.30;99.90;;;;;;4992898;28;19909;-71
2021/12/30 08:08:41;;;;;;;;;;;13.50;99.90;;;;;;4975586;28;19906;-71
2021/12/30 08:11:07;;;;;;;;;;;;;;;;;;5007712;28;19921;-72
2021/12/30 08:13:33;;;;;;;;;;;13.10;99.90;;;;;;5012106;28;20044;-71
2021/12/30 08:15:58;;;;;;;;;;;12.70;99.90;;;;;;5012873;28;19905;-71
2021/12/30 08:18:24;;;;;;;;;;;14.10;99.90;;;;;;5012332;28;19909;-71
2021/12/30 08:20:49;;;;;;;;;;;14.00;99.90;;;;;;5011220;28;19967;-70
2021/12/30 08:23:15;;;;;;;;;;;12.70;99.90;;;;;;5012214;28;19986;-71
2021/12/30 08:25:41;;;;;;;;;;;13.20;99.90;;;;;;5012053;28;20287;-70
2021/12/30 08:28:07;;;;;;;;;;;13.30;99.90;;;;;;5011456;28;19906;-71
2021/12/30 08:30:33;;;;;;;;;;;13.70;99.90;;;;;;5010668;28;20330;-71
2021/12/30 08:32:58;;;;;;;;;;;14.60;99.90;;;;;;4994031;28;19916;-71
2021/12/30 08:35:24;;;;;;;;;;;13.30;99.90;;;;;;5011765;28;20399;-66
2021/12/30 08:37:51;;;;;;;;;;;14.30;99.90;;;;;;5011921;28;19959;-67
2021/12/30 08:40:16;;;;;;;;;;;;;;;;;;5011380;28;20005;-66
2021/12/30 08:42:42;;;;;;;;;;;14.80;99.90;;;;;;4993428;28;20000;-67
2021/12/30 08:45:08;;;;;;;;;;;;;;;;;;4995595;28;19914;-67
2021/12/30 08:47:34;;;;;;;;;;;15.10;99.90;;;;;;4995981;28;19908;-66
2021/12/30 08:49:59;;;;;;;;;;;15.20;99.90;;;;;;4995325;28;19910;-69
2021/12/30 08:52:26;;;;;;;;;;;14.00;99.90;;;;;;4995761;28;19964;-67
2021/12/30 08:54:53;;;;;;;;;;;15.70;99.90;;;;;;4995786;28;20321;-66
2021/12/30 08:57:19;;;;;;;;;;;;;;;;;;4996002;28;19910;-66
2021/12/30 08:59:45;;;;;;;;;;;14.70;99.90;;;;;;4977556;28;19906;-67
2021/12/30 09:02:11;;;;;;;;;;;15.40;99.90;;;;;;4995551;28;19917;-67
2021/12/30 09:04:36;;;;;;;;;;;15.20;99.90;;;;;;4995572;28;20045;-66
2021/12/30 09:07:02;;;;;;;;;;;15.70;99.90;;;;;;4995556;28;20004;-67
2021/12/30 09:09:28;;;;;;;;;;;15.70;99.90;;;;;;4997030;28;19987;-67
2021/12/30 09:11:54;;;;;;;;;;;15.30;99.90;;;;;;5015082;28;20044;-68
2021/12/30 09:14:19;;;;;;;;;;;;;;;;;;4997310;28;19918;-66
2021/12/30 09:16:45;;;;;;;;;;;15.00;99.90;;;;;;5015088;28;19909;-67
2021/12/30 09:19:11;;;;;;;;;;;14.70;99.90;;;;;;5014396;28;20291;-67
2021/12/30 09:21:37;;;;;;;;;;;15.10;99.90;;;;;;5014983;28;20306;-66
2021/12/30 09:24:03;;;;;;;;;;;15.40;99.90;;;;;;5015086;28;20276;-66
2021/12/30 09:26:29;;;;;;;;;;;14.80;99.90;;;;;;5015264;28;19920;-66
2021/12/30 09:28:54;;;;;;;;;;;15.80;99.90;;;;;;5014520;28;20366;-67
2021/12/30 09:31:20;;;;;;;;;;;17.00;99.90;;;;;;5014076;28;19909;-67
2021/12/30 09:33:45;;;;;;;;;;;16.00;99.90;;;;;;5014495;28;19971;-66
2021/12/30 09:36:11;;;;;;;;;;;16.30;99.90;;;;;;5014754;28;19925;-71
2021/12/30 09:38:36;;;;;;;;;;;16.40;99.90;;;;;;5014716;28;19941;-67
2021/12/30 09:41:03;;;;;;;;;;;17.80;99.90;;;;;;5009103;28;19918;-67
2021/12/30 09:43:28;;;;;;;;;;;17.10;99.90;;;;;;4994606;28;19909;-67
2021/12/30 09:45:54;;;;;;;;;;;16.90;99.90;;;;;;4978089;28;20005;-67
2021/12/30 09:48:19;;;;;;;;;;;17.90;99.90;;;;;;4995008;28;19913;-72
2021/12/30 09:50:49;;;;;;;;;;;18.40;99.90;;;;;;4994204;28;19922;-68
2021/12/30 09:53:17;;;;;;;;;;;19.60;99.90;;;;;;4997662;28;19913;-68
2021/12/30 09:55:43;;;;;;;;;;;19.00;99.90;;;;;;4990716;28;19961;-68
2021/12/30 09:58:09;;;;;;;;;;;;;;;;;;5008824;28;19913;-68
2021/12/30 10:00:34;;;;;;;;;;;19.30;99.90;;;;;;5007085;28;20391;-68
2021/12/30 10:03:00;;;;;;;;;;;18.10;99.90;;;;;;5000931;28;19910;-66
2021/12/30 10:05:28;;;;;;;;;;;16.50;99.90;;;;;;4996139;28;19905;-67
2021/12/30 10:08:12;;;;;;;;;;;18.60;99.90;;;;;;5003263;28;19905;-69
2021/12/30 10:10:39;;;;;;;;;;;16.60;99.90;;;;;;5017894;28;19909;-68
2021/12/30 10:13:20;;;;;;;;;;;17.10;99.90;;;;;;5023062;28;19921;-68
2021/12/30 10:15:47;;;;;;;;;;;15.90;99.90;;;;;;5014031;28;19947;-65
2021/12/30 10:18:13;;;;;;;;;;;17.40;99.90;;;;;;5013729;28;19948;-66
2021/12/30 10:20:41;;;;;;;;;;;16.70;99.90;;;;;;5014270;28;19949;-68
2021/12/30 10:23:09;;;;;;;;;;;17.10;99.90;;;;;;5014002;28;19905;-67
2021/12/30 10:25:36;;;;;;;;;;;18.60;99.90;;;;;;5014086;28;19910;-68
2021/12/30 10:28:02;;;;;;;;;;;;;;;;;;5013843;28;19910;-68
2021/12/30 10:30:31;;;;;;;;;;;17.60;99.90;;;;;;5012998;28;19917;-68
2021/12/30 10:33:08;;;;;;;;;;;17.40;99.90;;;;;;5013969;28;19905;-68
2021/12/30 10:35:35;;;;;;;;;;;17.20;99.90;;;;;;5014213;28;20283;-67
2021/12/30 10:38:04;;;;;;;;;;;15.60;99.90;;;;;;4996844;28;19917;-68
2021/12/30 10:40:33;;;;;;;;;;;16.10;99.90;;;;;;5007772;28;20363;-69
2021/12/30 10:43:19;;;;;;;;;;;16.40;99.90;;;;;;5005735;28;19912;-68
2021/12/30 10:46:04;;;;;;;;;;;16.90;99.90;;;;;;4989340;28;19944;-68
2021/12/30 10:48:30;;;;;;;;;;;16.50;99.90;;;;;;5005768;28;19928;-71
2021/12/30 10:51:08;;;;;;;;;;;16.20;99.90;;;;;;5006308;28;19925;-72
2021/12/30 10:53:36;;;;;;;;;;;;;;;;;;4988805;28;20011;-72
2021/12/30 10:56:20;;;;;;;;;;;16.60;99.90;;;;;;4994144;28;20372;-72
2021/12/30 10:58:46;;;;;;;;;;;16.70;99.90;;;;;;4976238;28;19945;-71
2021/12/30 11:01:19;;;;;;;;;;;14.90;99.90;;;;;;4993156;28;19952;-72
2021/12/30 11:03:54;;;;;;;;;;;16.10;99.90;;;;;;4994923;28;19910;-71
2021/12/30 11:06:20;;;;;;;;;;;16.80;99.90;;;;;;4993545;28;19964;-71
2021/12/30 11:08:50;;;;;;;;;;;17.10;99.90;;;;;;4993556;28;19910;-68
2021/12/30 11:11:26;;;;;;;;;;;16.00;99.90;;;;;;5009568;28;20282;-72
2021/12/30 11:14:05;;;;;;;;;;;16.90;99.90;;;;;;4995191;28;20338;-72
2021/12/30 11:16:31;;;;;;;;;;;;;;;;;;5012904;28;19909;-72
2021/12/30 11:18:57;;;;;;;;;;;18.80;99.90;;;;;;5012718;28;20299;-72
2021/12/30 11:21:39;;;;;;;;;;;17.20;99.90;;;;;;5012456;28;19987;-71
2021/12/30 11:24:05;;;;;;;;;;;18.40;99.90;;;;;;5012563;28;19913;-72
2021/12/30 11:26:31;;;;;;;;;;;17.50;99.90;;;;;;5012888;28;19909;-70
2021/12/30 11:28:57;;;;;;;;;;;18.90;99.90;;;;;;5003494;28;19933;-70
2021/12/30 11:31:23;;;;;;;;;;;;;;;;;;4981267;28;20376;-70
2021/12/30 11:33:49;;;;;;;;;;;20.40;99.90;;;;;;4973527;28;19957;-70
2021/12/30 11:36:16;;;;;;;;;;;17.40;99.90;;;;;;4973764;28;19917;-73
2021/12/30 11:38:41;;;;;;;;;;;18.60;99.90;;;;;;4973384;28;19906;-76
2021/12/30 11:41:07;;;;;;;;;;;17.30;99.90;;;;;;4997522;28;20404;-75
2021/12/30 11:43:42;;;;;;;;;;;19.10;99.90;;;;;;4993164;28;19917;-75
2021/12/30 11:46:28;;;;;;;;;;;20.20;99.90;;;;;;4993052;28;19921;-74
2021/12/30 11:48:54;;;;;;;;;;;20.40;99.90;;;;;;4992802;28;19906;-76
2021/12/30 11:51:23;;;;;;;;;;;21.80;99.90;;;;;;4992160;28;19933;-75
2021/12/30 11:53:50;;;;;;;;;;;19.70;99.90;;;;;;4992963;28;20427;-76
2021/12/30 11:56:17;;;;;;;;;;;19.40;99.90;;;;;;4992866;28;19941;-75
2021/12/30 11:58:45;;;;;;;;;;;19.20;99.90;;;;;;4992564;28;19993;-75
2021/12/30 12:01:10;;;;;;;;;;;17.70;99.90;;;;;;4992176;28;19941;-77
2021/12/30 12:03:36;;;;;;;;;;;17.60;99.90;;;;;;4997057;28;19960;-76
2021/12/30 12:06:03;;;;;;;;;;;18.20;99.90;;;;;;5011664;28;19915;-76
2021/12/30 12:08:28;;;;;;;;;;;;;;;;;;5011643;28;20372;-77
2021/12/30 12:11:15;;;;;;;;;;;16.30;99.90;;;;;;5011159;28;19952;-77
2021/12/30 12:13:42;;;;;;;;;;;15.60;99.90;;;;;;4993667;28;19914;-76
2021/12/30 12:16:08;;;;;;;;;;;16.20;99.90;;;;;;5011003;28;19937;-76
2021/12/30 12:18:33;;;;;;;;;;;16.50;99.90;;;;;;5012969;28;19959;-77
2021/12/30 12:21:01;;;;;;;;;;;16.30;99.90;;;;;;5014694;28;20043;-77
2021/12/30 12:23:30;;;;;;;;;;;16.40;99.90;;;;;;4997242;28;19913;-73
2021/12/30 12:26:06;;;;;;;;;;;17.00;99.90;;;;;;5016452;28;19916;-72
2021/12/30 12:28:32;;;;;;;;;;;16.10;99.90;;;;;;5016028;28;20367;-75
2021/12/30 12:30:57;;;;;;;;;;;17.30;99.90;;;;;;5015062;28;19917;-70
2021/12/30 12:33:28;;;;;;;;;;;16.60;99.90;;;;;;5015556;28;19916;-72
2021/12/30 12:35:54;;;;;;;;;;;17.70;99.90;;;;;;5015865;28;19906;-74
2021/12/30 12:38:59;;;;;;;;;;;17.00;99.90;;;;;;5015837;28;20008;-75
2021/12/30 12:41:30;;;;;;;;;;;17.70;99.90;;;;;;4924984;29;20005;-77
2021/12/30 12:44:03;;;;;;;;;;;18.10;99.90;;;;;;4936016;29;20007;-77
2021/12/30 12:46:42;;;;;;;;;;;17.90;99.90;;;;;;4970388;28;19905;-77
2021/12/30 12:49:08;;;;;;;;;;;16.60;99.90;;;;;;4995602;28;19959;-78
2021/12/30 12:51:35;;;;;;;;;;;16.90;99.90;;;;;;4996528;28;19992;-78
2021/12/30 12:54:05;;;;;;;;;;;15.80;99.90;;;;;;4996435;28;19913;-78
2021/12/30 12:56:33;;;;;;;;;;;16.30;99.90;;;;;;4996285;28;19912;-78
2021/12/30 12:59:08;;;;;;;;;;;16.90;99.90;;;;;;4995992;28;19916;-78
2021/12/30 13:01:34;;;;;;;;;;;16.80;99.90;;;;;;4996628;28;19906;-79
2021/12/30 13:04:00;;;;;;;;;;;16.70;99.90;;;;;;4997424;28;20466;-78
2021/12/30 13:06:27;;;;;;;;;;;17.70;99.90;;;;;;4979821;28;19975;-79
2021/12/30 13:08:54;;;;;;;;;;;18.30;99.90;;;;;;4996619;28;19913;-79
2021/12/30 13:11:27;;;;;;;;;;;17.90;99.90;;;;;;5012310;28;19910;-78
2021/12/30 13:13:53;;;;;;;;;;;18.60;99.90;;;;;;5015625;28;19917;-79
2021/12/30 13:16:19;;;;;;;;;;;;;;;;;;5070561;22;20024;-78
2021/12/30 13:18:45;;;;;;;;;;;;;;;;;;5051980;28;19909;-79
2021/12/30 13:21:14;;;;;;;;;;;19.50;99.90;;;;;;5059343;28;19905;-77
2021/12/30 13:23:40;;;;;;;;;;;17.80;99.90;;;;;;5059220;28;19909;-78
2021/12/30 13:26:07;;;;;;;;;;;;;;;;;;5058223;28;19915;-77
2021/12/30 13:28:33;;;;;;;;;;;;;;;;;;5058854;28;19920;-78
2021/12/30 13:31:05;;;;;;;;;;;16.00;99.90;;;;;;5056017;28;20518;-79
2021/12/30 13:33:33;;;;;;;;;;;17.20;99.90;;;;;;5042516;28;20353;-78
2021/12/30 13:35:58;;;;;;;;;;;19.00;99.90;;;;;;5045427;28;20008;-79
2021/12/30 13:38:24;;;;;;;;;;;20.20;99.90;;;;;;5037049;28;19975;-79
2021/12/30 13:40:50;;;;;;;;;;;20.30;99.90;;;;;;5035091;28;19928;-79
2021/12/30 13:43:16;;;;;;;;;;;19.50;99.90;;;;;;5037039;28;19905;-79
2021/12/30 13:45:48;;;;;;;;;;;19.90;99.90;;;;;;5035732;28;19909;-79
2021/12/30 13:48:19;;;;;;;;;;;20.10;99.90;;;;;;5035669;28;19944;-78
2021/12/30 13:50:46;;;;;;;;;;;20.00;99.90;;;;;;5034946;28;20352;-79
2021/12/30 13:53:12;;;;;;;;;;;;;;;;;;5035510;28;19905;-79
2021/12/30 13:55:44;;;;;;;;;;;18.40;99.90;;;;;;5034895;28;19909;-77
2021/12/30 13:58:13;;;;;;;;;;;18.50;99.90;;;;;;5034886;28;19909;-78
2021/12/30 14:00:50;;;;;;;;;;;18.50;99.90;;;;;;5016321;28;19912;-79
2021/12/30 14:03:17;;;;;;;;;;;17.20;99.90;;;;;;5034892;28;19905;-77
2021/12/30 14:05:45;;;;;;;;;;;17.90;99.90;;;;;;5033378;28;19913;-79
2021/12/30 14:08:12;;;;;;;;;;;16.80;99.90;;;;;;5012976;28;19909;-77
2021/12/30 14:10:46;;;;;;;;;;;18.30;99.90;;;;;;5034493;28;19921;-81
2021/12/30 14:13:12;;;;;;;;;;;17.10;99.90;;;;;;5030232;28;20348;-81
2021/12/30 14:15:37;;;;;;;;;;;16.40;99.90;;;;;;5015430;28;19924;-80
2021/12/30 14:18:07;;;;;;;;;;;16.30;99.90;;;;;;5027127;28;20004;-78
2021/12/30 14:20:33;;;;;;;;;;;17.50;99.90;;;;;;5032820;28;19905;-75
2021/12/30 14:22:58;;;;;;;;;;;17.90;99.90;;;;;;5033851;28;19913;-77
2021/12/30 14:25:28;;;;;;;;;;;16.80;99.90;;;;;;5033323;28;20303;-78
2021/12/30 14:27:54;;;;;;;;;;;;;;;;;;5033628;28;20287;-77
2021/12/30 14:30:20;;;;;;;;;;;16.90;99.90;;;;;;5033046;28;19912;-77